createdAt,value
2022-11-10T00:02:34.472Z,98392.25
2022-11-10T00:07:55.535Z,98385.88
2022-11-10T00:13:16.698Z,98393.91
2022-11-10T00:18:37.695Z,98405.31
2022-11-10T00:23:58.575Z,98407.84
2022-11-10T00:29:20.152Z,98398.63
2022-11-10T00:34:41.414Z,98409.38
2022-11-10T00:40:02.556Z,98417.41
2022-11-10T00:45:23.581Z,98422.63
2022-11-10T00:50:44.802Z,98424.56
2022-11-10T00:56:06.004Z,98430.56
2022-11-10T01:01:27.436Z,98444.47
2022-11-10T01:06:48.738Z,98451.19
2022-11-10T01:12:09.937Z,98458.34
2022-11-10T01:17:31.162Z,98457.59
2022-11-10T01:22:52.441Z,98465.88
2022-11-10T01:28:13.619Z,98475.09
2022-11-10T01:33:35.671Z,98483.47
2022-11-10T01:38:56.591Z,98484.19
2022-11-10T01:44:20.056Z,98487.97
2022-11-10T01:49:41.057Z,98486.31
2022-11-10T01:55:02.655Z,98509.38
2022-11-10T02:00:24.523Z,98507.47
2022-11-10T02:05:45.698Z,98493.50
2022-11-10T02:11:06.560Z,98500.47
2022-11-10T02:16:27.468Z,98513.75
2022-11-10T02:21:48.283Z,98517.16
2022-11-10T02:27:09.309Z,98528.22
2022-11-10T02:32:30.116Z,98529.41
2022-11-10T02:37:51.730Z,98539.59
2022-11-10T02:43:14.936Z,98546.78
2022-11-10T02:48:35.755Z,98553.84
2022-11-10T02:53:56.639Z,98555.06
2022-11-10T02:59:17.620Z,98560.25
2022-11-10T03:04:38.707Z,98571.31
2022-11-10T03:09:59.570Z,98575.34
2022-11-10T03:15:21.316Z,98586.28
2022-11-10T03:20:42.295Z,98590.53
2022-11-10T03:26:07.526Z,98597.00
2022-11-10T03:31:28.574Z,98611.78
2022-11-10T03:36:49.723Z,98609.13
2022-11-10T03:42:10.863Z,98616.19
2022-11-10T03:47:31.928Z,98620.53
2022-11-10T03:52:53.033Z,98619.06
2022-11-10T03:58:14.231Z,98629.94
2022-11-10T04:03:35.488Z,98641.66
2022-11-10T04:08:59.424Z,98649.09
2022-11-10T04:14:39.277Z,98649.53
2022-11-10T04:20:00.430Z,98666.69
2022-11-10T04:25:21.373Z,98677.47
2022-11-10T04:30:43.912Z,98677.38
2022-11-10T04:36:05.454Z,98684.47
2022-11-10T04:41:27.904Z,98679.09
2022-11-10T04:46:49.801Z,98693.88
2022-11-10T04:52:11.433Z,98707.84
2022-11-10T04:57:32.428Z,98717.22
2022-11-10T05:02:53.536Z,98710.44
2022-11-10T05:08:14.775Z,98718.28
2022-11-10T05:13:35.608Z,98733.53
2022-11-10T05:18:58.305Z,98740.25
2022-11-10T05:24:19.815Z,98744.44
2022-11-10T05:29:41.132Z,98751.94
2022-11-10T05:35:01.969Z,98766.97
2022-11-10T05:40:23.405Z,98759.22
2022-11-10T05:45:44.500Z,98763.13
2022-11-10T05:51:06.850Z,98753.28
2022-11-10T05:56:27.879Z,98760.69
2022-11-10T06:01:48.772Z,98760.13
2022-11-10T06:07:11.984Z,98773.56
2022-11-10T06:12:33.548Z,98787.00
2022-11-10T06:17:55.536Z,98810.44
2022-11-10T06:23:16.739Z,98817.97
2022-11-10T06:28:37.719Z,98831.47
2022-11-10T06:33:58.784Z,98834.63
2022-11-10T06:39:20.111Z,98850.84
2022-11-10T06:44:41.256Z,98870.13
2022-11-10T06:50:02.359Z,98887.06
2022-11-10T06:55:23.888Z,98902.50
2022-11-10T07:00:45.340Z,98911.22
2022-11-10T07:06:06.921Z,98920.56
2022-11-10T07:11:27.946Z,98920.19
2022-11-10T07:16:49.551Z,98941.81
2022-11-10T07:22:11.412Z,98956.22
2022-11-10T07:27:32.743Z,98952.56
2022-11-10T07:33:14.667Z,98968.03
2022-11-10T07:38:35.849Z,98968.81
2022-11-10T07:43:57.096Z,98973.22
2022-11-10T07:49:18.334Z,98978.00
2022-11-10T07:54:39.443Z,98993.88
2022-11-10T08:00:00.419Z,98978.28
2022-11-10T08:05:22.474Z,99000.31
2022-11-10T08:10:44.095Z,99008.94
2022-11-10T08:16:05.407Z,99010.72
2022-11-10T08:21:26.305Z,99024.91
2022-11-10T08:26:47.271Z,99021.72
2022-11-10T08:32:08.640Z,99024.63
2022-11-10T08:37:29.432Z,99033.94
2022-11-10T08:42:59.691Z,99032.38
2022-11-10T08:48:22.058Z,99041.13
2022-11-10T08:53:43.258Z,99042.56
2022-11-10T08:59:04.349Z,99054.50
2022-11-10T09:04:25.148Z,99046.34
2022-11-10T09:10:01.367Z,99057.25
2022-11-10T09:15:27.731Z,99066.97
2022-11-10T09:20:48.900Z,99073.78
2022-11-10T09:26:09.655Z,99069.06
2022-11-10T09:31:30.732Z,99076.63
2022-11-10T09:36:52.321Z,99090.66
2022-11-10T09:52:47.569Z,99109.44
2022-11-10T09:58:14.144Z,99120.50
2022-11-10T10:03:39.431Z,99124.31
2022-11-10T10:09:11.921Z,99127.63
2022-11-10T10:14:32.900Z,99135.81
2022-11-10T10:20:12.927Z,99125.50
2022-11-10T10:25:34.115Z,99127.78
2022-11-10T10:31:07.141Z,99118.91
2022-11-10T10:36:31.172Z,99121.47
2022-11-10T10:41:52.527Z,99128.53
2022-11-10T10:47:13.347Z,99135.72
2022-11-10T10:52:34.639Z,99131.94
2022-11-10T10:58:29.165Z,99135.78
2022-11-10T11:03:51.763Z,99123.94
2022-11-10T11:09:25.436Z,99123.50
2022-11-10T11:14:46.543Z,99123.06
2022-11-10T11:20:15.346Z,99120.16
2022-11-10T11:25:42.128Z,99116.09
2022-11-10T11:31:05.965Z,99116.63
2022-11-10T11:36:49.109Z,99120.88
2022-11-10T11:42:29.526Z,99114.19
2022-11-10T11:47:59.602Z,99106.16
2022-11-10T11:59:12.174Z,99116.34
2022-11-10T12:04:51.262Z,99104.94
2022-11-10T12:10:27.563Z,99098.09
2022-11-10T12:16:04.059Z,99102.75
2022-11-10T12:21:45.621Z,99096.31
2022-11-10T12:27:17.461Z,99107.56
2022-11-10T12:33:00.095Z,99107.22
2022-11-10T12:38:31.396Z,99096.94
2022-11-10T12:44:10.806Z,99096.94
2022-11-10T12:49:39.289Z,99096.47
2022-11-10T12:55:00.981Z,99089.28
2022-11-10T13:00:32.482Z,99094.44
2022-11-10T13:06:25.296Z,99104.94
2022-11-10T13:12:04.018Z,99106.53
2022-11-10T13:17:30.960Z,99122.06
2022-11-10T13:22:51.909Z,99118.41
2022-11-10T13:28:13.364Z,99139.03
2022-11-10T13:33:36.926Z,99128.50
2022-11-10T13:39:15.313Z,99117.91
2022-11-10T13:44:43.594Z,99120.59
2022-11-10T13:50:21.090Z,99128.34
2022-11-10T14:01:18.518Z,99134.19
2022-11-10T14:06:55.092Z,99138.13
2022-11-10T14:12:27.180Z,99141.16
2022-11-10T14:17:51.896Z,99156.66
2022-11-10T14:23:34.003Z,99152.53
2022-11-10T14:28:57.284Z,99151.25
2022-11-10T14:34:19.211Z,99150.22
2022-11-10T14:39:41.817Z,99153.94
2022-11-10T14:45:15.740Z,99154.66
2022-11-10T14:50:37.004Z,99163.88
2022-11-10T14:55:59.239Z,99179.88
2022-11-10T15:01:39.028Z,99180.88
2022-11-10T15:07:00.765Z,99192.13
2022-11-10T15:12:27.277Z,99194.84
2022-11-10T15:17:51.640Z,99205.19
2022-11-10T15:23:32.073Z,99197.66
2022-11-10T15:28:55.161Z,99213.44
2022-11-10T15:34:49.011Z,99221.31
2022-11-10T15:40:29.371Z,99221.47
2022-11-10T15:45:57.290Z,99228.56
2022-11-10T15:51:24.655Z,99218.06
2022-11-10T15:56:46.829Z,99232.19
2022-11-10T16:02:25.876Z,99243.28
2022-11-10T16:07:49.531Z,99253.47
2022-11-10T16:13:13.672Z,99253.16
2022-11-10T16:18:34.784Z,99257.22
2022-11-10T16:23:55.742Z,99264.31
2022-11-10T16:29:20.869Z,99272.59
2022-11-10T16:34:44.467Z,99279.41
2022-11-10T16:40:14.812Z,99281.03
2022-11-10T16:45:36.042Z,99288.19
2022-11-10T16:50:59.165Z,99286.69
2022-11-10T16:56:23.539Z,99296.88
2022-11-10T17:01:46.191Z,99310.91
2022-11-10T17:07:14.754Z,99314.03
2022-11-10T17:12:35.607Z,99316.38
2022-11-10T17:18:04.466Z,99316.75
2022-11-10T17:23:27.054Z,99312.91
2022-11-10T17:28:49.194Z,99302.47
2022-11-10T17:34:10.288Z,99304.03
2022-11-10T17:39:32.853Z,99311.84
2022-11-10T17:44:54.024Z,99319.25
2022-11-10T17:50:19.836Z,99337.16
2022-11-10T17:55:40.956Z,99336.72
2022-11-10T18:01:02.421Z,99330.56
2022-11-10T18:06:23.871Z,99335.97
2022-11-10T18:11:44.884Z,99340.63
2022-11-10T18:17:06.161Z,99352.69
2022-11-10T18:22:27.237Z,99346.13
2022-11-10T18:27:48.751Z,99360.09
2022-11-10T18:33:12.213Z,99359.34
2022-11-10T18:38:33.716Z,99365.16
2022-11-10T18:43:54.851Z,99367.13
2022-11-10T18:49:16.223Z,99360.09
2022-11-10T18:54:37.299Z,99376.41
2022-11-10T18:59:58.432Z,99365.47
2022-11-10T19:05:19.625Z,99365.19
2022-11-10T19:10:42.917Z,99353.13
2022-11-10T19:16:07.730Z,99350.03
2022-11-10T19:21:28.694Z,99356.19
2022-11-10T19:26:53.257Z,99360.84
2022-11-10T19:32:14.675Z,99363.25
2022-11-10T19:37:35.644Z,99368.69
2022-11-10T19:42:56.555Z,99379.56
2022-11-10T19:54:05.062Z,99370.56
2022-11-10T19:59:26.136Z,99367.81
2022-11-10T20:05:05.523Z,99365.56
2022-11-10T20:10:26.666Z,99379.56
2022-11-10T20:15:47.737Z,99389.63
2022-11-10T20:21:17.757Z,99391.03
2022-11-10T20:26:38.913Z,99397.63
2022-11-10T20:31:59.697Z,99407.47
2022-11-10T20:37:20.865Z,99405.13
2022-11-10T20:42:42.878Z,99412.75
2022-11-10T20:48:04.493Z,99426.59
2022-11-10T20:53:26.069Z,99438.25
2022-11-10T20:58:49.034Z,99440.53
2022-11-10T21:04:11.001Z,99450.66
2022-11-10T21:09:31.910Z,99444.47
2022-11-10T21:14:53.276Z,99440.13
2022-11-10T21:20:14.655Z,99417.09
2022-11-10T21:25:35.897Z,99406.19
2022-11-10T21:31:04.808Z,99414.84
2022-11-10T21:36:29.306Z,99411.28
2022-11-10T21:41:50.906Z,99428.88
2022-11-10T21:47:11.679Z,99425.31
2022-11-10T21:52:33.051Z,99417.91
2022-11-10T21:58:00.914Z,99413.31
2022-11-10T22:03:22.632Z,99405.72
2022-11-10T22:08:45.747Z,99404.06
2022-11-10T22:14:31.926Z,99396.28
2022-11-10T22:19:53.208Z,99391.69
2022-11-10T22:25:14.315Z,99391.25
2022-11-10T22:30:37.804Z,99398.59
2022-11-10T22:36:00.339Z,99386.25
2022-11-10T22:41:40.047Z,99403.34
2022-11-10T22:47:01.521Z,99393.63
2022-11-10T22:52:22.795Z,99406.34
2022-11-10T22:57:43.755Z,99409.16
2022-11-10T23:03:04.881Z,99414.69
2022-11-10T23:08:25.786Z,99400.22
2022-11-10T23:13:47.255Z,99387.25
2022-11-10T23:19:10.410Z,99393.56
2022-11-10T23:24:31.565Z,99415.53
2022-11-10T23:29:52.690Z,99425.78
2022-11-10T23:35:13.575Z,99433.81
2022-11-10T23:40:34.615Z,99431.00
2022-11-10T23:46:11.843Z,99430.88
2022-11-10T23:51:33.068Z,99420.63
2022-11-10T23:56:53.934Z,99425.50
